Time;durP1;ratioP1;P1;durP2;ratioP2;P2;SDS_P1;SDS_P2;PMS_P1;PMS_P2;Temp;Humidity;BMP_temperature;BMP_pressure;BME280_temperature;BME280_humidity;BME280_pressure;Samples;Min_cycle;Max_cycle;Signal;HPM_P1;HPM_P2
2021/08/08 00:00:27;;;;;;;2.90;2.70;;;19.80;99.90;;;;;;5029956;28;20665;-69
2021/08/08 00:02:54;;;;;;;3.60;2.75;;;19.80;99.90;;;;;;5028155;28;20200;-69
2021/08/08 00:05:21;;;;;;;4.88;2.95;;;19.70;99.90;;;;;;5029394;28;20469;-70
2021/08/08 00:07:49;;;;;;;3.42;3.13;;;19.70;99.90;;;;;;5028621;28;20273;-69
2021/08/08 00:10:16;;;;;;;3.00;2.80;;;19.70;99.90;;;;;;5006620;28;20217;-69
2021/08/08 00:12:43;;;;;;;2.92;2.58;;;19.70;99.90;;;;;;5007588;28;20200;-69
2021/08/08 00:15:14;;;;;;;2.97;2.78;;;19.70;99.90;;;;;;5022660;28;20790;-70
2021/08/08 00:17:42;;;;;;;3.10;2.90;;;19.70;99.90;;;;;;5026324;28;20273;-69
2021/08/08 00:20:11;;;;;;;2.67;2.47;;;19.70;99.90;;;;;;5028327;28;20729;-70
2021/08/08 00:22:38;;;;;;;2.80;2.60;;;19.70;99.90;;;;;;5028574;28;20214;-69
2021/08/08 00:25:08;;;;;;;3.10;2.90;;;19.70;99.90;;;;;;5031145;28;20265;-69
2021/08/08 00:27:36;;;;;;;3.20;3.00;;;19.70;99.90;;;;;;5032238;28;20814;-69
2021/08/08 00:30:04;;;;;;;2.72;2.53;;;19.70;99.90;;;;;;5037078;28;20219;-70
2021/08/08 00:32:33;;;;;;;3.13;2.40;;;19.70;99.90;;;;;;5045681;28;20249;-69
2021/08/08 00:35:00;;;;;;;2.80;2.60;;;19.70;99.90;;;;;;5025265;28;20793;-69
2021/08/08 00:37:27;;;;;;;3.10;2.65;;;19.70;99.90;;;;;;5027633;28;20233;-69
2021/08/08 00:39:54;;;;;;;3.20;2.90;;;19.60;99.90;;;;;;5012248;28;20258;-69
2021/08/08 00:42:21;;;;;;;3.17;2.97;;;19.70;99.90;;;;;;5013481;28;20258;-69
2021/08/08 00:44:48;;;;;;;3.20;2.70;;;19.60;99.90;;;;;;5017138;28;20278;-70
2021/08/08 00:47:15;;;;;;;2.92;2.72;;;19.60;99.90;;;;;;5011553;28;20208;-69
2021/08/08 00:49:44;;;;;;;2.80;2.60;;;19.60;99.90;;;;;;5013611;28;20730;-70
2021/08/08 00:52:11;;;;;;;3.40;3.10;;;19.60;99.90;;;;;;5019713;28;20274;-69
2021/08/08 00:54:38;;;;;;;3.00;2.80;;;19.60;99.90;;;;;;5029498;28;20478;-69
2021/08/08 00:57:06;;;;;;;3.20;2.97;;;19.60;99.90;;;;;;5031140;28;20281;-69
2021/08/08 00:59:33;;;;;;;3.10;2.80;;;19.60;99.90;;;;;;5033160;28;20212;-69
2021/08/08 01:02:01;;;;;;;3.05;2.78;;;19.50;99.90;;;;;;5032639;28;20196;-69
2021/08/08 01:04:33;;;;;;;3.53;3.13;;;19.50;99.90;;;;;;5029161;28;20219;-69
2021/08/08 01:07:04;;;;;;;3.15;2.92;;;19.50;99.90;;;;;;5028245;28;20223;-70
2021/08/08 01:09:35;;;;;;;2.90;2.70;;;19.50;99.90;;;;;;5031824;28;20300;-69
2021/08/08 01:12:02;;;;;;;3.17;2.90;;;19.50;99.90;;;;;;5030112;28;20230;-69
2021/08/08 01:14:30;;;;;;;3.08;2.88;;;19.50;99.90;;;;;;5030903;28;20259;-70
2021/08/08 01:17:04;;;;;;;2.97;2.78;;;19.50;99.90;;;;;;5042943;28;20322;-70
2021/08/08 01:19:34;;;;;;;2.80;2.60;;;19.50;99.90;;;;;;5033875;28;20231;-70
2021/08/08 01:22:04;;;;;;;3.03;2.83;;;19.50;99.90;;;;;;5030706;28;20196;-70
2021/08/08 01:24:33;;;;;;;2.83;2.63;;;19.50;99.90;;;;;;5028760;28;20219;-71
2021/08/08 01:27:02;;;;;;;3.22;3.00;;;19.50;99.90;;;;;;5030345;28;20215;-70
2021/08/08 01:29:30;;;;;;;2.70;2.50;;;19.50;99.90;;;;;;5029726;28;20389;-70
2021/08/08 01:31:58;;;;;;;3.28;3.05;;;19.50;99.90;;;;;;5029378;28;20211;-70
2021/08/08 01:34:25;;;;;;;3.50;3.20;;;19.50;99.90;;;;;;5029536;28;20277;-70
2021/08/08 01:36:52;;;;;;;3.20;2.58;;;19.60;99.90;;;;;;5030506;28;20231;-70
2021/08/08 01:39:21;;;;;;;2.85;2.65;;;19.50;99.90;;;;;;5029012;28;20215;-70
2021/08/08 01:41:53;;;;;;;3.10;2.85;;;19.60;99.90;;;;;;5029822;28;20203;-70
2021/08/08 01:44:21;;;;;;;2.72;2.53;;;19.60;99.90;;;;;;5029455;28;20212;-70
2021/08/08 01:46:54;;;;;;;3.20;2.90;;;19.60;99.90;;;;;;5028918;28;20689;-70
2021/08/08 01:49:24;;;;;;;3.45;3.15;;;19.60;99.90;;;;;;5026971;28;20299;-72
2021/08/08 01:51:52;;;;;;;3.03;2.72;;;19.60;99.90;;;;;;5029269;28;20203;-70
2021/08/08 01:54:20;;;;;;;3.10;2.90;;;19.60;99.90;;;;;;5030997;28;20253;-70
2021/08/08 01:56:49;;;;;;;3.22;2.92;;;19.60;99.90;;;;;;5033023;28;20584;-70
2021/08/08 01:59:16;;;;;;;2.80;2.60;;;19.70;99.90;;;;;;5034439;28;20238;-70
2021/08/08 02:01:43;;;;;;;3.55;3.25;;;19.70;99.90;;;;;;5031464;28;20216;-70
2021/08/08 02:04:18;;;;;;;4.65;3.20;;;19.60;99.90;;;;;;5043997;28;20273;-70
2021/08/08 02:06:45;;;;;;;3.05;2.85;;;19.70;99.90;;;;;;5029484;28;20672;-69
2021/08/08 02:09:12;;;;;;;3.33;2.83;;;19.70;99.90;;;;;;5030429;28;20211;-70
2021/08/08 02:11:40;;;;;;;2.85;2.65;;;19.60;99.90;;;;;;5029838;28;20211;-70
2021/08/08 02:14:08;;;;;;;2.78;2.58;;;19.60;99.90;;;;;;5020215;28;20295;-69
2021/08/08 02:16:36;;;;;;;2.63;2.42;;;19.60;99.90;;;;;;5012037;28;20728;-70
2021/08/08 02:19:03;;;;;;;4.32;3.13;;;19.60;99.90;;;;;;5008857;28;20282;-70
2021/08/08 02:21:30;;;;;;;3.20;2.90;;;19.60;99.90;;;;;;5011048;28;20720;-69
2021/08/08 02:23:58;;;;;;;2.90;2.60;;;19.60;99.90;;;;;;5006272;28;20224;-70
2021/08/08 02:26:25;;;;;;;3.60;2.83;;;19.60;99.90;;;;;;5015303;28;20224;-70
2021/08/08 02:28:52;;;;;;;2.97;2.70;;;19.60;99.90;;;;;;5018066;28;20223;-69
2021/08/08 02:31:20;;;;;;;3.10;2.88;;;19.60;99.90;;;;;;5030154;28;20195;-69
2021/08/08 02:33:47;;;;;;;3.03;2.55;;;19.60;99.90;;;;;;5030567;28;20219;-70
2021/08/08 02:36:14;;;;;;;4.10;3.28;;;19.60;99.90;;;;;;5029825;28;20689;-70
2021/08/08 02:38:41;;;;;;;2.80;2.60;;;19.60;99.90;;;;;;5027995;28;20235;-70
2021/08/08 02:41:10;;;;;;;3.42;3.13;;;19.60;99.90;;;;;;5026514;28;20204;-71
2021/08/08 02:43:37;;;;;;;3.60;3.30;;;19.60;99.90;;;;;;5028549;28;20227;-70
2021/08/08 02:46:04;;;;;;;2.80;2.60;;;19.60;99.90;;;;;;5026354;28;20219;-70
2021/08/08 02:48:35;;;;;;;4.22;3.40;;;19.60;99.90;;;;;;5034612;28;20195;-70
2021/08/08 02:51:02;;;;;;;3.15;2.85;;;19.60;99.90;;;;;;5034148;28;20206;-70
2021/08/08 02:53:29;;;;;;;3.92;3.15;;;19.50;99.90;;;;;;5025059;28;20254;-70
2021/08/08 02:55:56;;;;;;;4.68;3.50;;;19.50;99.90;;;;;;5028899;28;20206;-70
2021/08/08 02:58:24;;;;;;;3.17;2.95;;;19.50;99.90;;;;;;5026265;28;20289;-71
2021/08/08 03:00:51;;;;;;;3.45;3.15;;;19.50;99.90;;;;;;5025870;28;20578;-70
2021/08/08 03:03:18;;;;;;;3.28;3.00;;;19.50;99.90;;;;;;5026373;28;20204;-70
2021/08/08 03:05:46;;;;;;;3.63;3.33;;;19.50;99.90;;;;;;5024876;28;20293;-70
2021/08/08 03:08:13;;;;;;;3.08;2.88;;;19.50;99.90;;;;;;5027505;28;20199;-70
2021/08/08 03:10:41;;;;;;;3.08;2.78;;;19.50;99.90;;;;;;5025445;28;22183;-70
2021/08/08 03:13:08;;;;;;;3.00;2.70;;;19.50;99.90;;;;;;5028153;28;20203;-70
2021/08/08 03:15:35;;;;;;;2.90;2.70;;;19.50;99.90;;;;;;5029103;28;20285;-70
2021/08/08 03:18:02;;;;;;;3.25;3.05;;;19.50;99.90;;;;;;5032995;28;20694;-70
2021/08/08 03:20:29;;;;;;;3.22;2.97;;;19.50;99.90;;;;;;5030703;28;20230;-70
2021/08/08 03:22:57;;;;;;;3.08;2.88;;;19.50;99.90;;;;;;5023770;28;20646;-72
2021/08/08 03:25:24;;;;;;;3.30;3.10;;;19.50;99.90;;;;;;5032440;28;20619;-70
2021/08/08 03:27:51;;;;;;;2.80;2.60;;;19.50;99.90;;;;;;5025885;28;20292;-70
2021/08/08 03:30:19;;;;;;;3.65;2.63;;;19.50;99.90;;;;;;5027204;28;20630;-70
2021/08/08 03:32:46;;;;;;;3.08;2.88;;;19.40;99.90;;;;;;5026686;28;20656;-70
2021/08/08 03:35:13;;;;;;;2.97;2.78;;;19.40;99.90;;;;;;5048681;28;20219;-70
2021/08/08 03:37:40;;;;;;;3.72;2.83;;;19.40;99.90;;;;;;5025690;28;20227;-70
2021/08/08 03:40:10;;;;;;;3.05;2.85;;;19.40;99.90;;;;;;5028453;28;20215;-70
2021/08/08 03:42:38;;;;;;;3.00;2.80;;;19.40;99.90;;;;;;5026068;28;20196;-70
2021/08/08 03:45:06;;;;;;;2.80;2.60;;;19.40;99.90;;;;;;5029398;28;20269;-70
2021/08/08 03:47:33;;;;;;;3.25;3.05;;;19.40;99.90;;;;;;5025288;28;20274;-70
2021/08/08 03:50:01;;;;;;;3.45;2.70;;;19.40;99.90;;;;;;5025669;28;20212;-70
2021/08/08 03:52:28;;;;;;;2.72;2.60;;;19.40;99.90;;;;;;5024986;28;20698;-70
2021/08/08 03:54:54;;;;;;;3.10;2.90;;;19.40;99.90;;;;;;5024626;28;20270;-70
2021/08/08 03:57:23;;;;;;;2.97;2.78;;;19.30;99.90;;;;;;5026799;28;20235;-70
2021/08/08 03:59:50;;;;;;;2.92;2.72;;;19.30;99.90;;;;;;5028720;28;20269;-69
2021/08/08 04:02:17;;;;;;;3.15;2.90;;;19.30;99.90;;;;;;5028566;28;20195;-69
2021/08/08 04:04:44;;;;;;;2.90;2.60;;;19.30;99.90;;;;;;5023585;28;20219;-70
2021/08/08 04:07:11;;;;;;;2.90;2.70;;;19.30;99.90;;;;;;5024944;28;20227;-70
2021/08/08 04:09:38;;;;;;;2.97;2.78;;;19.30;99.90;;;;;;5022891;28;20223;-69
2021/08/08 04:12:07;;;;;;;3.00;2.80;;;19.30;99.90;;;;;;5029679;28;20195;-70
2021/08/08 04:14:36;;;;;;;3.25;2.95;;;19.30;99.90;;;;;;5027413;28;20800;-70
2021/08/08 04:17:04;;;;;;;3.17;2.60;;;19.20;99.90;;;;;;5026430;28;20269;-70
2021/08/08 04:19:31;;;;;;;2.97;2.78;;;19.30;99.90;;;;;;5032232;28;20775;-71
2021/08/08 04:21:58;;;;;;;2.70;2.50;;;19.30;99.90;;;;;;5037815;28;20222;-70
2021/08/08 04:24:25;;;;;;;2.70;2.50;;;19.30;99.90;;;;;;5026282;28;20727;-70
2021/08/08 04:26:52;;;;;;;2.72;2.53;;;19.30;99.90;;;;;;5031886;28;20613;-70
2021/08/08 04:29:19;;;;;;;2.95;2.75;;;19.30;99.90;;;;;;5027013;28;20902;-70
2021/08/08 04:31:47;;;;;;;3.38;2.63;;;19.30;99.90;;;;;;5025562;28;20286;-70
2021/08/08 04:34:14;;;;;;;3.95;3.58;;;19.40;99.90;;;;;;5027118;28;20293;-69
2021/08/08 04:36:41;;;;;;;3.45;3.20;;;19.30;99.90;;;;;;5021748;28;20232;-70
2021/08/08 04:39:08;;;;;;;3.88;3.00;;;19.10;99.90;;;;;;5027873;28;20219;-70
2021/08/08 04:41:35;;;;;;;4.32;3.28;;;19.10;99.90;;;;;;5029054;28;20244;-69
2021/08/08 04:44:02;;;;;;;3.50;3.20;;;19.00;99.90;;;;;;5026373;28;20223;-70
2021/08/08 04:46:29;;;;;;;3.10;2.90;;;19.00;99.90;;;;;;5030357;28;20728;-69
2021/08/08 04:48:58;;;;;;;3.13;2.92;;;18.90;99.90;;;;;;5021505;28;20187;-69
2021/08/08 04:51:25;;;;;;;3.35;3.08;;;19.00;99.90;;;;;;5028108;28;20203;-70
2021/08/08 04:53:52;;;;;;;3.20;3.00;;;19.00;99.90;;;;;;5024341;28;20204;-70
2021/08/08 04:56:19;;;;;;;3.20;2.90;;;19.00;99.90;;;;;;5031563;28;20219;-69
2021/08/08 04:58:46;;;;;;;3.33;3.03;;;19.10;99.90;;;;;;5030283;28;20213;-70
2021/08/08 05:01:13;;;;;;;4.07;3.78;;;19.10;99.90;;;;;;5025384;28;20242;-70
2021/08/08 05:03:40;;;;;;;3.33;3.13;;;19.20;99.90;;;;;;5030013;28;20199;-69
2021/08/08 05:06:08;;;;;;;2.88;2.67;;;19.10;99.90;;;;;;5038307;28;20227;-72
2021/08/08 05:08:35;;;;;;;3.80;3.50;;;19.10;99.90;;;;;;5054224;22;20232;-77
2021/08/08 05:11:02;;;;;;;3.42;2.85;;;19.00;99.90;;;;;;5034922;28;20231;-77
2021/08/08 05:13:29;;;;;;;3.42;3.13;;;18.90;99.90;;;;;;5030928;28;20255;-78
2021/08/08 05:15:56;;;;;;;4.18;3.30;;;18.90;99.90;;;;;;5015702;28;20220;-76
2021/08/08 05:18:24;;;;;;;3.03;2.83;;;18.90;99.90;;;;;;4998701;28;20241;-77
2021/08/08 05:20:51;;;;;;;3.95;3.65;;;18.90;99.90;;;;;;5010833;28;20239;-77
2021/08/08 05:23:19;;;;;;;3.75;3.40;;;18.70;99.90;;;;;;5017483;28;20565;-77
2021/08/08 05:25:46;;;;;;;3.67;3.38;;;18.60;99.90;;;;;;5012256;28;20629;-76
2021/08/08 05:28:13;;;;;;;3.13;2.92;;;18.60;99.90;;;;;;5009674;28;20217;-76
2021/08/08 05:30:40;;;;;;;3.50;3.30;;;18.50;99.90;;;;;;5006526;28;20216;-77
2021/08/08 05:33:07;;;;;;;2.97;2.78;;;18.60;99.90;;;;;;5010092;28;20196;-77
2021/08/08 05:35:34;;;;;;;3.47;3.10;;;18.70;99.90;;;;;;5007737;28;20238;-77
2021/08/08 05:38:01;;;;;;;3.55;2.90;;;18.90;99.90;;;;;;5007169;28;20220;-78
2021/08/08 05:40:30;;;;;;;3.28;2.97;;;19.00;99.90;;;;;;5010074;28;20225;-78
2021/08/08 05:42:57;;;;;;;6.25;3.30;;;19.10;99.90;;;;;;5010922;28;20207;-76
2021/08/08 05:45:24;;;;;;;4.32;2.90;;;19.10;99.90;;;;;;5005453;28;20235;-76
2021/08/08 05:47:51;;;;;;;2.92;2.72;;;19.10;99.90;;;;;;5003246;28;20227;-77
2021/08/08 05:50:19;;;;;;;2.50;2.30;;;19.20;99.90;;;;;;5009957;28;20670;-77
2021/08/08 05:52:49;;;;;;;2.83;2.63;;;19.30;99.90;;;;;;5009769;28;20229;-77
2021/08/08 05:55:16;;;;;;;2.75;2.55;;;19.40;99.90;;;;;;5006059;28;20303;-78
2021/08/08 05:57:44;;;;;;;2.50;2.30;;;19.40;99.90;;;;;;5003373;28;20216;-76
2021/08/08 06:00:13;;;;;;;3.25;2.42;;;19.50;99.90;;;;;;5007284;28;20216;-77
2021/08/08 06:02:40;;;;;;;2.30;2.20;;;19.60;99.90;;;;;;5009091;28;20655;-77
2021/08/08 06:05:08;;;;;;;2.50;2.30;;;19.60;99.90;;;;;;5010181;28;20220;-77
2021/08/08 06:07:35;;;;;;;2.55;2.35;;;19.70;99.90;;;;;;5009648;28;20236;-78
2021/08/08 06:10:02;;;;;;;2.20;2.10;;;19.80;99.90;;;;;;5005399;28;20270;-77
2021/08/08 06:12:29;;;;;;;2.40;2.20;;;19.90;99.90;;;;;;5010462;28;20196;-77
2021/08/08 06:14:57;;;;;;;2.40;2.30;;;19.90;99.90;;;;;;5011174;28;20224;-77
2021/08/08 06:17:24;;;;;;;2.35;2.25;;;20.00;99.90;;;;;;5012726;28;20231;-77
2021/08/08 06:19:51;;;;;;;2.80;2.60;;;19.90;99.90;;;;;;5006814;28;20698;-78
2021/08/08 06:22:18;;;;;;;2.28;2.17;;;19.90;99.90;;;;;;5006807;28;20196;-77
2021/08/08 06:24:45;;;;;;;2.83;2.22;;;20.10;99.90;;;;;;5010492;28;20279;-76
2021/08/08 06:27:12;;;;;;;2.00;1.80;;;20.20;99.90;;;;;;5010050;28;20588;-76
2021/08/08 06:29:39;;;;;;;2.03;1.92;;;20.30;99.90;;;;;;5014764;28;20661;-77
2021/08/08 06:32:08;;;;;;;1.80;1.70;;;20.50;99.90;;;;;;5023048;28;20223;-77
2021/08/08 06:34:35;;;;;;;2.25;2.05;;;20.60;99.90;;;;;;5005263;28;20656;-77
2021/08/08 06:37:02;;;;;;;2.40;1.48;;;20.80;99.90;;;;;;5005982;28;20197;-78
2021/08/08 06:39:29;;;;;;;1.50;1.40;;;21.00;99.90;;;;;;5005455;28;20246;-77
2021/08/08 06:41:56;;;;;;;1.40;1.30;;;21.20;99.90;;;;;;5006134;28;20196;-78
2021/08/08 06:44:24;;;;;;;1.00;1.00;;;21.50;99.90;;;;;;5003931;28;20230;-78
2021/08/08 06:46:51;;;;;;;1.27;1.00;;;21.50;99.90;;;;;;5007818;28;20197;-77
2021/08/08 06:49:19;;;;;;;1.92;1.00;;;21.70;99.90;;;;;;5007424;28;20212;-77
2021/08/08 06:51:46;;;;;;;1.17;1.08;;;21.60;99.90;;;;;;5005155;28;20690;-77
2021/08/08 06:54:13;;;;;;;0.90;0.90;;;21.50;99.90;;;;;;5011739;28;20543;-78
2021/08/08 06:56:40;;;;;;;1.00;1.00;;;21.60;99.90;;;;;;5008858;28;20197;-78
2021/08/08 06:59:07;;;;;;;1.05;0.90;;;21.80;99.90;;;;;;5008917;28;20216;-77
2021/08/08 07:01:34;;;;;;;1.52;1.05;;;21.90;99.90;;;;;;5008759;28;20335;-78
2021/08/08 07:04:02;;;;;;;0.88;0.88;;;22.10;99.90;;;;;;5011406;28;20729;-78
2021/08/08 07:06:35;;;;;;;1.48;1.15;;;22.30;99.90;;;;;;5011718;28;20207;-78
2021/08/08 07:09:09;;;;;;;1.30;0.88;;;22.50;99.90;;;;;;5016810;28;20278;-78
2021/08/08 07:11:40;;;;;;;0.80;0.80;;;22.70;99.90;;;;;;5007841;28;20198;-78
2021/08/08 07:14:09;;;;;;;0.80;0.80;;;22.80;99.90;;;;;;5011346;28;20228;-77
2021/08/08 07:16:37;;;;;;;0.90;0.90;;;22.90;99.90;;;;;;5002975;28;20200;-78
2021/08/08 07:19:07;;;;;;;0.85;0.85;;;23.00;99.90;;;;;;5012199;28;20220;-78
2021/08/08 07:21:50;;;;;;;2.25;0.98;;;23.10;99.90;;;;;;5009280;28;20223;-78
2021/08/08 07:24:17;;;;;;;1.17;1.00;;;23.10;99.90;;;;;;5007594;28;20196;-78
2021/08/08 07:26:45;;;;;;;0.88;0.88;;;22.80;99.90;;;;;;5008127;28;20682;-78
2021/08/08 07:29:12;;;;;;;1.02;0.88;;;22.80;99.90;;;;;;5010133;28;20219;-77
2021/08/08 07:31:39;;;;;;;1.13;1.00;;;22.70;99.90;;;;;;5006476;28;20220;-77
2021/08/08 07:34:06;;;;;;;1.52;0.90;;;23.00;99.90;;;;;;5010236;28;20200;-77
2021/08/08 07:36:34;;;;;;;0.82;0.70;;;23.10;99.90;;;;;;5008172;28;20772;-77
2021/08/08 07:39:01;;;;;;;1.02;0.90;;;23.30;99.90;;;;;;5013220;28;20275;-77
2021/08/08 07:41:28;;;;;;;1.88;1.10;;;23.50;99.90;;;;;;5009887;28;20370;-78
2021/08/08 07:43:55;;;;;;;0.90;0.90;;;23.50;99.90;;;;;;5006756;28;20331;-77
2021/08/08 07:46:22;;;;;;;1.52;0.95;;;23.40;99.90;;;;;;5007774;28;20251;-77
2021/08/08 07:48:50;;;;;;;1.83;0.95;;;22.90;99.90;;;;;;5006294;28;20307;-78
2021/08/08 07:51:17;;;;;;;1.42;0.93;;;22.50;99.90;;;;;;5007673;28;20236;-78
2021/08/08 07:53:46;;;;;;;1.77;0.82;;;22.30;99.90;;;;;;5006293;28;20204;-77
2021/08/08 07:56:13;;;;;;;1.60;1.08;;;22.40;99.90;;;;;;5006093;28;20220;-77
2021/08/08 07:58:41;;;;;;;1.20;1.10;;;22.50;99.90;;;;;;5006650;28;20223;-78
2021/08/08 08:01:08;;;;;;;1.75;0.85;;;22.50;99.90;;;;;;5007349;28;20444;-77
2021/08/08 08:03:35;;;;;;;1.13;1.02;;;22.30;99.90;;;;;;5007058;28;20207;-77
2021/08/08 08:06:02;;;;;;;0.75;0.75;;;22.30;99.90;;;;;;5007918;28;20229;-77
2021/08/08 08:08:30;;;;;;;1.25;0.80;;;22.50;99.90;;;;;;5001744;28;20239;-78
2021/08/08 08:10:58;;;;;;;0.90;0.90;;;22.90;99.90;;;;;;5008021;28;20216;-76
2021/08/08 08:13:25;;;;;;;1.85;0.80;;;23.00;99.90;;;;;;5011779;28;20200;-79
2021/08/08 08:15:52;;;;;;;0.70;0.70;;;23.00;99.90;;;;;;5014009;28;20622;-78
2021/08/08 08:18:19;;;;;;;0.90;0.90;;;23.40;99.90;;;;;;5006254;28;20223;-77
2021/08/08 08:20:46;;;;;;;1.00;0.93;;;23.90;99.90;;;;;;5007629;28;20625;-77
2021/08/08 08:23:13;;;;;;;1.13;0.90;;;24.30;99.90;;;;;;5004008;28;20211;-77
2021/08/08 08:25:40;;;;;;;0.73;0.73;;;24.40;99.90;;;;;;5006033;28;20225;-78
2021/08/08 08:28:11;;;;;;;0.70;0.70;;;24.50;99.90;;;;;;5006035;28;20221;-77
2021/08/08 08:30:38;;;;;;;0.70;0.70;;;24.40;99.90;;;;;;5003206;28;20216;-77
2021/08/08 08:33:06;;;;;;;1.23;0.93;;;24.50;99.90;;;;;;5006710;28;20598;-77
2021/08/08 08:35:33;;;;;;;1.25;0.93;;;24.70;99.90;;;;;;5004659;28;20235;-78
2021/08/08 08:38:00;;;;;;;2.00;1.80;;;24.80;99.90;;;;;;5004085;28;20816;-77
2021/08/08 08:40:27;;;;;;;2.85;2.65;;;24.70;99.90;;;;;;5006679;28;20384;-77
2021/08/08 08:42:58;;;;;;;1.73;1.63;;;24.60;99.90;;;;;;5007623;28;20607;-77
2021/08/08 08:45:26;;;;;;;2.75;2.47;;;24.60;99.90;;;;;;5006566;28;20224;-77
2021/08/08 08:47:54;;;;;;;1.38;1.27;;;24.80;99.90;;;;;;5009795;28;20266;-78
2021/08/08 08:50:22;;;;;;;1.45;1.33;;;25.20;99.90;;;;;;5009995;28;20514;-76
2021/08/08 08:52:51;;;;;;;1.50;1.40;;;25.40;99.90;;;;;;5012098;28;20287;-77
2021/08/08 08:55:18;;;;;;;2.38;2.15;;;25.40;99.90;;;;;;5010951;28;20305;-77
2021/08/08 08:57:45;;;;;;;2.58;2.38;;;25.20;99.90;;;;;;5009988;28;20232;-77
2021/08/08 09:00:13;;;;;;;1.30;1.20;;;25.20;99.90;;;;;;5008438;28;20232;-79
2021/08/08 09:02:44;;;;;;;1.33;1.23;;;25.00;99.90;;;;;;5011831;28;20204;-78
2021/08/08 09:05:11;;;;;;;2.33;2.10;;;24.90;99.90;;;;;;5012254;28;20212;-79
2021/08/08 09:07:38;;;;;;;2.83;1.98;;;24.90;99.90;;;;;;5002422;28;20232;-79
2021/08/08 09:10:11;;;;;;;3.20;3.00;;;24.90;99.90;;;;;;5011319;28;20311;-77
2021/08/08 09:12:38;;;;;;;1.58;1.48;;;24.90;99.90;;;;;;5006131;28;20284;-77
2021/08/08 09:15:08;;;;;;;1.58;1.45;;;25.00;99.90;;;;;;5007191;28;20227;-79
2021/08/08 09:17:39;;;;;;;1.83;1.13;;;25.10;99.90;;;;;;5009174;28;20224;-78
2021/08/08 09:20:10;;;;;;;1.70;1.10;;;25.00;99.90;;;;;;5005017;28;20250;-79
2021/08/08 09:22:37;;;;;;;2.17;1.20;;;25.20;99.90;;;;;;5005562;28;20200;-75
2021/08/08 09:25:05;;;;;;;1.20;1.13;;;25.40;99.90;;;;;;5006007;28;20285;-78
2021/08/08 09:27:34;;;;;;;1.00;1.00;;;25.50;99.90;;;;;;5010029;28;20625;-81
2021/08/08 09:30:03;;;;;;;1.63;1.50;;;25.60;99.90;;;;;;5009212;28;20203;-78
2021/08/08 09:32:31;;;;;;;1.58;1.48;;;25.90;99.90;;;;;;5007435;28;20205;-77
2021/08/08 09:35:07;;;;;;;1.58;1.30;;;26.00;99.90;;;;;;5004982;28;20197;-77
2021/08/08 09:37:35;;;;;;;1.95;1.60;;;26.00;99.90;;;;;;5004926;28;20216;-77
2021/08/08 09:40:03;;;;;;;0.95;0.95;;;25.80;99.90;;;;;;5001176;28;20270;-77
2021/08/08 09:42:31;;;;;;;1.90;1.45;;;25.90;99.90;;;;;;5003175;28;20205;-77
2021/08/08 09:45:00;;;;;;;1.33;1.23;;;26.10;99.90;;;;;;5004333;28;20208;-78
2021/08/08 09:47:40;;;;;;;3.85;3.45;;;26.30;99.90;;;;;;5005232;28;20228;-79
2021/08/08 09:50:11;;;;;;;2.63;2.22;;;26.40;99.90;;;;;;5006576;28;20199;-77
2021/08/08 09:52:39;;;;;;;4.35;3.65;;;26.20;99.90;;;;;;5001697;28;20201;-78
2021/08/08 09:55:18;;;;;;;3.70;2.40;;;26.20;99.90;;;;;;5007324;28;20295;-78
2021/08/08 09:57:45;;;;;;;3.17;1.80;;;26.40;99.90;;;;;;5007259;28;20247;-77
2021/08/08 10:00:23;;;;;;;1.67;1.58;;;26.70;99.90;;;;;;5006828;28;20683;-77
2021/08/08 10:02:50;;;;;;;1.30;1.20;;;26.70;99.90;;;;;;5001066;28;20196;-77
2021/08/08 10:05:19;;;;;;;1.63;1.35;;;26.60;99.90;;;;;;5001876;28;20200;-78
2021/08/08 10:07:47;;;;;;;1.58;1.10;;;26.40;99.90;;;;;;5001512;28;20228;-79
2021/08/08 10:10:15;;;;;;;1.20;1.10;;;26.30;99.90;;;;;;5010831;28;20205;-77
2021/08/08 10:13:02;;;;;;;1.77;1.00;;;26.10;99.90;;;;;;5003871;28;20201;-78
2021/08/08 10:15:29;;;;;;;1.88;1.23;;;26.00;99.90;;;;;;5006810;28;20232;-78
2021/08/08 10:17:59;;;;;;;1.25;1.15;;;26.00;99.90;;;;;;5006894;28;20266;-78
2021/08/08 10:20:30;;;;;;;2.33;1.30;;;26.10;99.90;;;;;;5001652;28;20247;-79
2021/08/08 10:22:58;;;;;;;1.42;1.20;;;26.10;99.90;;;;;;5002119;28;20251;-77
2021/08/08 10:25:26;;;;;;;2.90;1.23;;;26.20;99.90;;;;;;5007091;28;20279;-79
2021/08/08 10:27:53;;;;;;;2.55;1.30;;;26.40;99.90;;;;;;5005450;28;20217;-77
2021/08/08 10:30:20;;;;;;;1.52;1.42;;;26.60;99.90;;;;;;5006385;28;20199;-77
2021/08/08 10:32:47;;;;;;;1.58;1.35;;;26.70;99.90;;;;;;5007661;28;20203;-78
2021/08/08 10:35:16;;;;;;;2.85;1.77;;;26.80;99.90;;;;;;5004893;28;20651;-78
2021/08/08 10:37:46;;;;;;;1.40;1.30;;;27.10;99.90;;;;;;5003038;28;20224;-79
2021/08/08 10:40:25;;;;;;;1.33;1.23;;;27.20;99.90;;;;;;5004694;28;20275;-78
2021/08/08 10:42:52;;;;;;;2.13;1.20;;;27.10;99.90;;;;;;5011148;28;20243;-77
2021/08/08 10:45:24;;;;;;;1.25;1.17;;;27.30;99.90;;;;;;5010061;28;20204;-77
2021/08/08 10:47:56;;;;;;;1.38;1.27;;;27.50;99.90;;;;;;5003240;28;20220;-76
2021/08/08 10:50:23;;;;;;;1.20;1.10;;;27.50;99.90;;;;;;4998634;28;20220;-78
2021/08/08 10:52:51;;;;;;;2.83;1.58;;;27.40;99.90;;;;;;5003624;28;20208;-77
2021/08/08 10:55:23;;;;;;;5.57;1.45;;;27.30;99.90;;;;;;4999423;28;20204;-77
2021/08/08 10:57:50;;;;;;;1.30;1.10;;;27.20;99.90;;;;;;4990489;28;20228;-78
2021/08/08 11:00:18;;;;;;;3.15;1.90;;;27.10;99.90;;;;;;4998133;28;20233;-78
2021/08/08 11:02:45;;;;;;;2.75;2.25;;;27.10;99.90;;;;;;5003907;28;20193;-78
2021/08/08 11:05:13;;;;;;;1.80;1.70;;;27.20;99.90;;;;;;5006206;28;20295;-79
2021/08/08 11:07:42;;;;;;;2.38;2.03;;;27.50;99.90;;;;;;5000698;28;20236;-77
2021/08/08 11:10:12;;;;;;;2.50;2.30;;;27.60;99.90;;;;;;5008147;28;20228;-78
2021/08/08 11:12:41;;;;;;;1.80;1.70;;;27.60;99.90;;;;;;5002275;28;20281;-77
2021/08/08 11:15:10;;;;;;;2.00;1.35;;;27.70;99.90;;;;;;5009194;28;20269;-76
2021/08/08 11:17:37;;;;;;;1.60;1.50;;;27.80;99.90;;;;;;5033242;22;20695;-71
2021/08/08 11:20:05;;;;;;;1.85;1.60;;;27.80;99.90;;;;;;5060421;28;20222;-72
2021/08/08 11:22:32;;;;;;;3.90;1.35;;;27.80;99.90;;;;;;5060847;28;20240;-72
2021/08/08 11:25:03;;;;;;;1.65;1.55;;;27.70;99.90;;;;;;5065033;28;20198;-71
2021/08/08 11:27:34;;;;;;;1.90;1.55;;;28.00;99.90;;;;;;5058958;28;20229;-71
2021/08/08 11:30:01;;;;;;;1.58;1.48;;;28.00;99.90;;;;;;5066485;28;20239;-73
2021/08/08 11:32:30;;;;;;;1.65;1.55;;;28.20;99.90;;;;;;5063320;28;20233;-73
2021/08/08 11:35:05;;;;;;;1.73;1.60;;;28.20;99.90;;;;;;5062063;28;20699;-73
2021/08/08 11:37:34;;;;;;;2.03;1.70;;;28.20;99.90;;;;;;5060948;28;20222;-73
2021/08/08 11:40:01;;;;;;;1.85;1.75;;;28.30;99.90;;;;;;5062816;28;20210;-73
2021/08/08 11:42:33;;;;;;;2.25;2.05;;;28.50;99.90;;;;;;5063483;28;20275;-70
2021/08/08 11:45:01;;;;;;;2.58;1.88;;;28.60;99.90;;;;;;5061929;28;20202;-72
2021/08/08 11:47:28;;;;;;;1.63;1.52;;;28.60;99.90;;;;;;5049117;28;20238;-72
2021/08/08 11:49:55;;;;;;;2.20;1.50;;;28.60;99.90;;;;;;5044948;28;20191;-71
2021/08/08 11:52:22;;;;;;;1.50;1.40;;;28.60;99.90;;;;;;5040665;28;20226;-72
2021/08/08 11:55:01;;;;;;;4.78;1.77;;;28.70;99.90;;;;;;5042454;28;20273;-72
2021/08/08 11:57:30;;;;;;;1.70;1.50;;;28.90;99.90;;;;;;5043396;28;20218;-73
2021/08/08 12:00:00;;;;;;;2.00;1.80;;;28.90;99.90;;;;;;5043617;28;20693;-72
2021/08/08 12:02:29;;;;;;;1.60;1.48;;;29.00;99.90;;;;;;5040480;28;20463;-72
2021/08/08 12:04:58;;;;;;;2.05;1.85;;;29.40;99.90;;;;;;5044589;28;20294;-72
2021/08/08 12:07:28;;;;;;;1.70;1.60;;;29.70;99.90;;;;;;5044912;28;20713;-72
2021/08/08 12:09:55;;;;;;;1.65;1.55;;;29.60;99.90;;;;;;5047625;28;20191;-71
2021/08/08 12:12:34;;;;;;;3.08;2.05;;;29.60;99.90;;;;;;5046135;28;20215;-72
2021/08/08 12:15:02;;;;;;;1.70;1.60;;;29.80;99.90;;;;;;5049108;28;20194;-71
2021/08/08 12:17:30;;;;;;;4.13;1.90;;;30.10;99.90;;;;;;5051491;28;20222;-72
2021/08/08 12:20:00;;;;;;;2.95;1.95;;;30.00;99.90;;;;;;5050566;28;20225;-72
2021/08/08 12:22:29;;;;;;;2.50;2.20;;;29.80;99.90;;;;;;5053728;28;20222;-71
2021/08/08 12:25:04;;;;;;;2.67;2.42;;;29.60;99.90;;;;;;5051136;28;20579;-72
2021/08/08 12:27:33;;;;;;;4.68;3.03;;;29.60;99.90;;;;;;5047895;28;20233;-71
2021/08/08 12:30:02;;;;;;;5.50;2.78;;;29.40;99.90;;;;;;5045451;28;20198;-72
2021/08/08 12:32:34;;;;;;;3.58;2.70;;;29.30;99.90;;;;;;5048456;28;20219;-72
2021/08/08 12:35:08;;;;;;;4.68;2.63;;;29.30;99.90;;;;;;5045176;28;20233;-72
2021/08/08 12:37:35;;;;;;;5.30;2.67;;;29.30;99.90;;;;;;5046776;28;20227;-70
2021/08/08 12:40:09;;;;;;;3.97;2.42;;;29.40;99.90;;;;;;5044525;28;20663;-71
2021/08/08 12:42:37;;;;;;;5.85;3.30;;;29.50;99.90;;;;;;5047478;28;20784;-71
2021/08/08 12:45:08;;;;;;;3.70;2.67;;;29.40;99.90;;;;;;5052026;28;20206;-72
2021/08/08 12:47:36;;;;;;;5.38;2.90;;;29.40;99.90;;;;;;5051356;28;20640;-71
2021/08/08 12:50:14;;;;;;;8.45;3.20;;;29.50;99.90;;;;;;5052413;28;20199;-72
2021/08/08 12:52:41;;;;;;;12.15;3.30;;;29.50;99.90;;;;;;5046723;28;20259;-71